sensor_id;sensor_type;location;lat;lon;timestamp;temperature;humidity
55329;DHT22;41205;44.264;19.884;2022-07-29T00:01:50;537.60;2406.40
55329;DHT22;41205;44.264;19.884;2022-07-29T00:04:17;537.70;2406.40
55329;DHT22;41205;44.264;19.884;2022-07-29T00:06:43;537.90;2406.40
55329;DHT22;41205;44.264;19.884;2022-07-29T00:09:09;537.70;2406.40
55329;DHT22;41205;44.264;19.884;2022-07-29T00:11:34;537.60;2406.40
55329;DHT22;41205;44.264;19.884;2022-07-29T00:14:00;537.60;2406.40
55329;DHT22;41205;44.264;19.884;2022-07-29T00:16:25;537.60;2406.40
55329;DHT22;41205;44.264;19.884;2022-07-29T00:18:51;537.60;2406.40
55329;DHT22;41205;44.264;19.884;2022-07-29T00:21:17;512.90;2380.80
55329;DHT22;41205;44.264;19.884;2022-07-29T00:23:42;512.80;2380.80
55329;DHT22;41205;44.264;19.884;2022-07-29T00:26:08;512.90;2380.80
55329;DHT22;41205;44.264;19.884;2022-07-29T00:28:33;512.80;2380.80
55329;DHT22;41205;44.264;19.884;2022-07-29T00:31:00;512.90;2380.80
55329;DHT22;41205;44.264;19.884;2022-07-29T00:33:25;512.80;2380.80
55329;DHT22;41205;44.264;19.884;2022-07-29T00:35:51;512.80;2380.80
55329;DHT22;41205;44.264;19.884;2022-07-29T00:38:18;512.80;2380.80
55329;DHT22;41205;44.264;19.884;2022-07-29T00:40:45;512.70;2380.80
55329;DHT22;41205;44.264;19.884;2022-07-29T00:43:11;512.70;2380.80
55329;DHT22;41205;44.264;19.884;2022-07-29T00:45:37;512.70;2380.80
55329;DHT22;41205;44.264;19.884;2022-07-29T00:48:03;512.70;2380.80
55329;DHT22;41205;44.264;19.884;2022-07-29T00:50:30;512.70;2380.80
55329;DHT22;41205;44.264;19.884;2022-07-29T00:52:56;512.60;2380.80
55329;DHT22;41205;44.264;19.884;2022-07-29T00:55:22;512.60;2380.80
55329;DHT22;41205;44.264;19.884;2022-07-29T00:57:47;512.70;2380.80
55329;DHT22;41205;44.264;19.884;2022-07-29T01:00:20;512.60;2380.80
55329;DHT22;41205;44.264;19.884;2022-07-29T01:02:47;512.50;2380.80
55329;DHT22;41205;44.264;19.884;2022-07-29T01:05:19;512.30;2380.80
55329;DHT22;41205;44.264;19.884;2022-07-29T01:07:46;512.30;2380.80
55329;DHT22;41205;44.264;19.884;2022-07-29T01:10:12;512.30;2380.80
55329;DHT22;41205;44.264;19.884;2022-07-29T01:12:38;512.30;2380.80
55329;DHT22;41205;44.264;19.884;2022-07-29T01:15:04;512.20;2380.80
55329;DHT22;41205;44.264;19.884;2022-07-29T01:20:17;512.10;2380.80
55329;DHT22;41205;44.264;19.884;2022-07-29T01:27:42;512.10;2380.80
55329;DHT22;41205;44.264;19.884;2022-07-29T01:30:10;512.00;2380.80
55329;DHT22;41205;44.264;19.884;2022-07-29T01:32:36;487.30;2380.80
55329;DHT22;41205;44.264;19.884;2022-07-29T01:35:06;512.00;2380.80
55329;DHT22;41205;44.264;19.884;2022-07-29T01:40:25;512.10;2380.80
55329;DHT22;41205;44.264;19.884;2022-07-29T01:42:53;512.20;2380.80
55329;DHT22;41205;44.264;19.884;2022-07-29T01:45:21;512.10;2380.80
55329;DHT22;41205;44.264;19.884;2022-07-29T01:50:14;512.10;2380.80
55329;DHT22;41205;44.264;19.884;2022-07-29T01:52:52;487.30;2380.80
55329;DHT22;41205;44.264;19.884;2022-07-29T01:55:20;512.10;2380.80
55329;DHT22;41205;44.264;19.884;2022-07-29T01:57:47;512.10;2380.80
55329;DHT22;41205;44.264;19.884;2022-07-29T02:00:14;512.20;2380.80
55329;DHT22;41205;44.264;19.884;2022-07-29T02:02:41;512.20;2380.80
55329;DHT22;41205;44.264;19.884;2022-07-29T02:05:07;512.10;2380.80
55329;DHT22;41205;44.264;19.884;2022-07-29T02:07:35;512.10;2380.80
55329;DHT22;41205;44.264;19.884;2022-07-29T02:10:02;512.00;2380.80
55329;DHT22;41205;44.264;19.884;2022-07-29T02:12:28;487.30;2380.80
55329;DHT22;41205;44.264;19.884;2022-07-29T02:14:54;487.30;2380.80
55329;DHT22;41205;44.264;19.884;2022-07-29T02:17:23;487.30;2380.80
55329;DHT22;41205;44.264;19.884;2022-07-29T02:19:49;487.30;2380.80
55329;DHT22;41205;44.264;19.884;2022-07-29T02:22:15;487.30;2380.80
55329;DHT22;41205;44.264;19.884;2022-07-29T02:24:41;487.30;2380.80
55329;DHT22;41205;44.264;19.884;2022-07-29T02:27:08;487.30;2380.80
55329;DHT22;41205;44.264;19.884;2022-07-29T02:29:33;487.20;2380.80
55329;DHT22;41205;44.264;19.884;2022-07-29T02:31:59;487.20;2380.80
55329;DHT22;41205;44.264;19.884;2022-07-29T02:34:26;487.20;2380.80
55329;DHT22;41205;44.264;19.884;2022-07-29T02:36:52;487.10;2380.80
55329;DHT22;41205;44.264;19.884;2022-07-29T02:39:19;487.10;2380.80
55329;DHT22;41205;44.264;19.884;2022-07-29T02:41:48;487.10;2380.80
55329;DHT22;41205;44.264;19.884;2022-07-29T02:44:16;487.00;2380.80
55329;DHT22;41205;44.264;19.884;2022-07-29T02:51:58;487.10;2380.80
55329;DHT22;41205;44.264;19.884;2022-07-29T02:54:37;487.10;2380.80
55329;DHT22;41205;44.264;19.884;2022-07-29T02:57:06;487.10;2380.80
55329;DHT22;41205;44.264;19.884;2022-07-29T02:59:34;487.00;2380.80
55329;DHT22;41205;44.264;19.884;2022-07-29T03:02:01;487.10;2380.80
55329;DHT22;41205;44.264;19.884;2022-07-29T03:04:27;487.10;2380.80
55329;DHT22;41205;44.264;19.884;2022-07-29T03:06:55;487.10;2380.80
55329;DHT22;41205;44.264;19.884;2022-07-29T03:09:22;487.10;2380.80
55329;DHT22;41205;44.264;19.884;2022-07-29T03:11:49;487.10;2380.80
55329;DHT22;41205;44.264;19.884;2022-07-29T03:14:15;487.00;2380.80
55329;DHT22;41205;44.264;19.884;2022-07-29T03:16:41;487.00;2380.80
55329;DHT22;41205;44.264;19.884;2022-07-29T03:19:07;487.00;2380.80
55329;DHT22;41205;44.264;19.884;2022-07-29T03:21:33;487.00;2380.80
55329;DHT22;41205;44.264;19.884;2022-07-29T03:23:58;487.10;2380.80
55329;DHT22;41205;44.264;19.884;2022-07-29T03:26:24;487.10;2380.80
55329;DHT22;41205;44.264;19.884;2022-07-29T03:28:50;487.00;2380.80
55329;DHT22;41205;44.264;19.884;2022-07-29T03:31:15;487.00;2380.80
55329;DHT22;41205;44.264;19.884;2022-07-29T03:33:41;487.10;2380.80
55329;DHT22;41205;44.264;19.884;2022-07-29T03:36:07;487.10;2380.80
55329;DHT22;41205;44.264;19.884;2022-07-29T03:38:33;487.00;2380.80
55329;DHT22;41205;44.264;19.884;2022-07-29T03:41:01;487.00;2380.80
55329;DHT22;41205;44.264;19.884;2022-07-29T03:43:32;487.00;2380.80
55329;DHT22;41205;44.264;19.884;2022-07-29T03:45:59;487.20;2380.80
55329;DHT22;41205;44.264;19.884;2022-07-29T03:48:25;487.20;2380.80
55329;DHT22;41205;44.264;19.884;2022-07-29T03:50:51;487.30;2380.80
55329;DHT22;41205;44.264;19.884;2022-07-29T03:53:17;512.10;2380.80
55329;DHT22;41205;44.264;19.884;2022-07-29T03:55:44;512.10;2380.80
55329;DHT22;41205;44.264;19.884;2022-07-29T03:58:11;512.10;2380.80
55329;DHT22;41205;44.264;19.884;2022-07-29T04:00:37;512.20;2380.80
55329;DHT22;41205;44.264;19.884;2022-07-29T04:03:04;512.30;2380.80
55329;DHT22;41205;44.264;19.884;2022-07-29T04:05:30;512.30;2380.80
55329;DHT22;41205;44.264;19.884;2022-07-29T04:07:55;512.20;2380.80
55329;DHT22;41205;44.264;19.884;2022-07-29T04:10:21;512.30;2380.80
55329;DHT22;41205;44.264;19.884;2022-07-29T04:12:48;512.50;2380.80
55329;DHT22;41205;44.264;19.884;2022-07-29T04:15:14;512.60;2380.80
55329;DHT22;41205;44.264;19.884;2022-07-29T04:17:39;512.70;2380.80
55329;DHT22;41205;44.264;19.884;2022-07-29T04:20:05;512.70;2380.80
55329;DHT22;41205;44.264;19.884;2022-07-29T04:22:31;512.70;2380.80
55329;DHT22;41205;44.264;19.884;2022-07-29T04:24:56;512.90;2380.80
55329;DHT22;41205;44.264;19.884;2022-07-29T04:27:22;512.90;2380.80
55329;DHT22;41205;44.264;19.884;2022-07-29T04:29:47;512.90;2380.80
55329;DHT22;41205;44.264;19.884;2022-07-29T04:32:13;512.90;2380.80
55329;DHT22;41205;44.264;19.884;2022-07-29T04:34:39;537.70;2406.40
55329;DHT22;41205;44.264;19.884;2022-07-29T04:37:04;537.90;2406.40
55329;DHT22;41205;44.264;19.884;2022-07-29T04:39:30;537.90;2406.40
55329;DHT22;41205;44.264;19.884;2022-07-29T04:41:55;537.90;2406.40
55329;DHT22;41205;44.264;19.884;2022-07-29T04:44:21;537.90;2406.40
55329;DHT22;41205;44.264;19.884;2022-07-29T04:46:47;538.00;2406.40
55329;DHT22;41205;44.264;19.884;2022-07-29T04:49:12;538.00;2406.40
55329;DHT22;41205;44.264;19.884;2022-07-29T04:51:38;538.30;2406.40
55329;DHT22;41205;44.264;19.884;2022-07-29T04:54:04;538.50;2406.40
55329;DHT22;41205;44.264;19.884;2022-07-29T04:56:29;563.40;2432.00
55329;DHT22;41205;44.264;19.884;2022-07-29T04:58:55;640.50;2432.00
55329;DHT22;41205;44.264;19.884;2022-07-29T05:01:20;717.10;1996.80
55329;DHT22;41205;44.264;19.884;2022-07-29T05:03:46;743.30;1792.00
55329;DHT22;41205;44.264;19.884;2022-07-29T05:06:12;793.70;1689.60
55329;DHT22;41205;44.264;19.884;2022-07-29T05:08:37;820.00;1536.00
55329;DHT22;41205;44.264;19.884;2022-07-29T05:11:03;844.90;1510.40
55329;DHT22;41205;44.264;19.884;2022-07-29T05:13:28;845.00;1510.40
55329;DHT22;41205;44.264;19.884;2022-07-29T05:15:54;870.70;1433.60
55329;DHT22;41205;44.264;19.884;2022-07-29T05:18:20;871.30;1382.40
55329;DHT22;41205;44.264;19.884;2022-07-29T05:20:46;921.70;1331.20
55329;DHT22;41205;44.264;19.884;2022-07-29T05:23:11;922.20;1305.60
55329;DHT22;41205;44.264;19.884;2022-07-29T05:25:40;922.00;1305.60
55329;DHT22;41205;44.264;19.884;2022-07-29T05:28:05;947.40;1280.00
55329;DHT22;41205;44.264;19.884;2022-07-29T05:30:31;948.00;1228.80
55329;DHT22;41205;44.264;19.884;2022-07-29T05:32:56;973.20;1228.80
55329;DHT22;41205;44.264;19.884;2022-07-29T05:35:22;973.30;1228.80
55329;DHT22;41205;44.264;19.884;2022-07-29T05:37:47;973.70;1177.60
55329;DHT22;41205;44.264;19.884;2022-07-29T05:40:13;998.80;1177.60
55329;DHT22;41205;44.264;19.884;2022-07-29T05:42:39;1024.30;1126.40
55329;DHT22;41205;44.264;19.884;2022-07-29T05:45:04;1024.30;1126.40
55329;DHT22;41205;44.264;19.884;2022-07-29T05:47:30;1024.90;1100.80
55329;DHT22;41205;44.264;19.884;2022-07-29T05:49:56;1024.70;1100.80
55329;DHT22;41205;44.264;19.884;2022-07-29T05:52:24;1024.70;1100.80
55329;DHT22;41205;44.264;19.884;2022-07-29T05:54:49;1050.20;1100.80
55329;DHT22;41205;44.264;19.884;2022-07-29T05:57:19;1050.30;1100.80
55329;DHT22;41205;44.264;19.884;2022-07-29T05:59:45;1075.70;1024.00
55329;DHT22;41205;44.264;19.884;2022-07-29T06:02:10;1100.80;1049.60
55329;DHT22;41205;44.264;19.884;2022-07-29T06:04:36;1075.70;1049.60
55329;DHT22;41205;44.264;19.884;2022-07-29T06:07:02;1101.00;1049.60
55329;DHT22;41205;44.264;19.884;2022-07-29T06:09:28;1126.40;1024.00
55329;DHT22;41205;44.264;19.884;2022-07-29T06:11:54;1126.80;1024.00
55329;DHT22;41205;44.264;19.884;2022-07-29T06:14:19;1126.70;1024.00
55329;DHT22;41205;44.264;19.884;2022-07-29T06:16:45;1126.90;1024.00
55329;DHT22;41205;44.264;19.884;2022-07-29T06:19:11;1152.20;972.80
55329;DHT22;41205;44.264;19.884;2022-07-29T06:21:40;1177.70;947.20
55329;DHT22;41205;44.264;19.884;2022-07-29T06:24:06;1178.10;921.60
55329;DHT22;41205;44.264;19.884;2022-07-29T06:26:32;1178.50;896.00
55329;DHT22;41205;44.264;19.884;2022-07-29T06:28:58;1178.10;896.00
55329;DHT22;41205;44.264;19.884;2022-07-29T06:31:24;1203.20;921.60
55329;DHT22;41205;44.264;19.884;2022-07-29T06:33:49;1178.50;870.40
55329;DHT22;41205;44.264;19.884;2022-07-29T06:36:15;1178.20;870.40
55329;DHT22;41205;44.264;19.884;2022-07-29T06:38:40;1126.90;947.20
55329;DHT22;41205;44.264;19.884;2022-07-29T06:41:07;1152.20;947.20
55329;DHT22;41205;44.264;19.884;2022-07-29T06:43:36;1178.00;896.00
55329;DHT22;41205;44.264;19.884;2022-07-29T06:46:06;1126.70;947.20
55329;DHT22;41205;44.264;19.884;2022-07-29T06:48:33;1126.90;947.20
55329;DHT22;41205;44.264;19.884;2022-07-29T06:50:59;1152.70;896.00
55329;DHT22;41205;44.264;19.884;2022-07-29T06:53:24;1152.60;921.60
55329;DHT22;41205;44.264;19.884;2022-07-29T06:55:50;1178.00;870.40
55329;DHT22;41205;44.264;19.884;2022-07-29T06:58:16;1203.40;870.40
55329;DHT22;41205;44.264;19.884;2022-07-29T07:00:43;1229.20;844.80
55329;DHT22;41205;44.264;19.884;2022-07-29T07:03:09;1228.90;844.80
55329;DHT22;41205;44.264;19.884;2022-07-29T07:05:37;1203.70;844.80
55329;DHT22;41205;44.264;19.884;2022-07-29T07:08:03;1204.10;844.80
55329;DHT22;41205;44.264;19.884;2022-07-29T07:10:28;1228.80;844.80
55329;DHT22;41205;44.264;19.884;2022-07-29T07:12:54;1229.50;819.20
55329;DHT22;41205;44.264;19.884;2022-07-29T07:15:20;1228.90;844.80
55329;DHT22;41205;44.264;19.884;2022-07-29T07:17:50;1203.80;844.80
55329;DHT22;41205;44.264;19.884;2022-07-29T07:20:16;1229.20;819.20
55329;DHT22;41205;44.264;19.884;2022-07-29T07:22:41;1203.80;819.20
55329;DHT22;41205;44.264;19.884;2022-07-29T07:25:07;1203.30;870.40
55329;DHT22;41205;44.264;19.884;2022-07-29T07:27:33;1229.20;844.80
55329;DHT22;41205;44.264;19.884;2022-07-29T07:29:58;1229.70;819.20
55329;DHT22;41205;44.264;19.884;2022-07-29T07:32:24;1229.50;793.60
55329;DHT22;41205;44.264;19.884;2022-07-29T07:34:49;1203.60;819.20
55329;DHT22;41205;44.264;19.884;2022-07-29T07:37:15;1229.20;819.20
55329;DHT22;41205;44.264;19.884;2022-07-29T07:39:41;1228.90;819.20
55329;DHT22;41205;44.264;19.884;2022-07-29T07:42:06;1203.40;844.80
55329;DHT22;41205;44.264;19.884;2022-07-29T07:44:32;1228.90;819.20
55329;DHT22;41205;44.264;19.884;2022-07-29T07:46:57;1204.10;819.20
55329;DHT22;41205;44.264;19.884;2022-07-29T07:49:23;1203.40;819.20
55329;DHT22;41205;44.264;19.884;2022-07-29T07:51:49;1229.30;819.20
55329;DHT22;41205;44.264;19.884;2022-07-29T07:54:14;1203.60;819.20
55329;DHT22;41205;44.264;19.884;2022-07-29T07:56:40;1178.30;844.80
55329;DHT22;41205;44.264;19.884;2022-07-29T07:59:06;1178.30;819.20
55329;DHT22;41205;44.264;19.884;2022-07-29T08:01:31;1229.30;819.20
55329;DHT22;41205;44.264;19.884;2022-07-29T08:03:57;1152.50;896.00
55329;DHT22;41205;44.264;19.884;2022-07-29T08:06:22;1177.80;844.80
55329;DHT22;41205;44.264;19.884;2022-07-29T08:08:50;1203.90;819.20
55329;DHT22;41205;44.264;19.884;2022-07-29T08:11:15;1229.40;819.20
55329;DHT22;41205;44.264;19.884;2022-07-29T08:13:42;1229.30;819.20
55329;DHT22;41205;44.264;19.884;2022-07-29T08:16:08;1203.70;819.20
55329;DHT22;41205;44.264;19.884;2022-07-29T08:18:37;1203.60;819.20
55329;DHT22;41205;44.264;19.884;2022-07-29T08:21:03;1228.80;819.20
55329;DHT22;41205;44.264;19.884;2022-07-29T08:23:29;1229.00;819.20
55329;DHT22;41205;44.264;19.884;2022-07-29T08:26:07;1178.20;819.20
55329;DHT22;41205;44.264;19.884;2022-07-29T08:28:36;1203.30;819.20
55329;DHT22;41205;44.264;19.884;2022-07-29T08:31:02;1152.60;844.80
55329;DHT22;41205;44.264;19.884;2022-07-29T08:33:27;1101.60;896.00
55329;DHT22;41205;44.264;19.884;2022-07-29T08:35:53;1024.50;972.80
55329;DHT22;41205;44.264;19.884;2022-07-29T08:38:19;998.80;1024.00
55329;DHT22;41205;44.264;19.884;2022-07-29T08:40:44;948.10;1024.00
55329;DHT22;41205;44.264;19.884;2022-07-29T08:43:10;947.30;1075.20
55329;DHT22;41205;44.264;19.884;2022-07-29T08:48:08;947.80;1075.20
55329;DHT22;41205;44.264;19.884;2022-07-29T08:50:35;922.40;1100.80
55329;DHT22;41205;44.264;19.884;2022-07-29T08:53:00;922.30;1100.80
55329;DHT22;41205;44.264;19.884;2022-07-29T08:55:26;922.30;1075.20
55329;DHT22;41205;44.264;19.884;2022-07-29T08:57:52;921.70;1100.80
55329;DHT22;41205;44.264;19.884;2022-07-29T09:00:18;896.70;1100.80
55329;DHT22;41205;44.264;19.884;2022-07-29T09:02:44;921.80;1126.40
55329;DHT22;41205;44.264;19.884;2022-07-29T09:05:10;921.90;1100.80
55329;DHT22;41205;44.264;19.884;2022-07-29T09:07:36;921.60;1126.40
55329;DHT22;41205;44.264;19.884;2022-07-29T09:10:04;921.60;1126.40
55329;DHT22;41205;44.264;19.884;2022-07-29T09:12:30;922.20;1126.40
55329;DHT22;41205;44.264;19.884;2022-07-29T09:14:55;896.30;1126.40
55329;DHT22;41205;44.264;19.884;2022-07-29T09:20:13;896.60;1126.40
55329;DHT22;41205;44.264;19.884;2022-07-29T09:22:39;871.30;1177.60
55329;DHT22;41205;44.264;19.884;2022-07-29T09:25:05;896.10;1152.00
55329;DHT22;41205;44.264;19.884;2022-07-29T09:27:30;896.40;1152.00
55329;DHT22;41205;44.264;19.884;2022-07-29T09:29:57;896.30;1177.60
55329;DHT22;41205;44.264;19.884;2022-07-29T09:32:23;871.10;1203.20
55329;DHT22;41205;44.264;19.884;2022-07-29T09:34:49;871.30;1203.20
55329;DHT22;41205;44.264;19.884;2022-07-29T09:37:27;871.10;1203.20
55329;DHT22;41205;44.264;19.884;2022-07-29T09:39:53;896.00;1177.60
55329;DHT22;41205;44.264;19.884;2022-07-29T09:42:28;871.10;1203.20
55329;DHT22;41205;44.264;19.884;2022-07-29T09:44:54;871.30;1203.20
55329;DHT22;41205;44.264;19.884;2022-07-29T09:47:20;871.00;1203.20
55329;DHT22;41205;44.264;19.884;2022-07-29T09:49:58;870.90;1203.20
55329;DHT22;41205;44.264;19.884;2022-07-29T09:52:28;870.60;1228.80
55329;DHT22;41205;44.264;19.884;2022-07-29T09:55:03;845.70;1254.40
55329;DHT22;41205;44.264;19.884;2022-07-29T09:57:29;871.10;1228.80
55329;DHT22;41205;44.264;19.884;2022-07-29T09:59:59;870.80;1228.80
55329;DHT22;41205;44.264;19.884;2022-07-29T10:02:28;871.20;1203.20
55329;DHT22;41205;44.264;19.884;2022-07-29T10:04:54;870.90;1228.80
55329;DHT22;41205;44.264;19.884;2022-07-29T10:07:20;870.60;1254.40
55329;DHT22;41205;44.264;19.884;2022-07-29T10:09:52;870.60;1254.40
55329;DHT22;41205;44.264;19.884;2022-07-29T10:12:19;845.50;1254.40
55329;DHT22;41205;44.264;19.884;2022-07-29T10:14:45;845.60;1254.40
55329;DHT22;41205;44.264;19.884;2022-07-29T10:17:11;870.50;1254.40
55329;DHT22;41205;44.264;19.884;2022-07-29T10:19:37;870.70;1228.80
55329;DHT22;41205;44.264;19.884;2022-07-29T10:22:05;870.80;1228.80
55329;DHT22;41205;44.264;19.884;2022-07-29T10:24:31;871.10;1203.20
55329;DHT22;41205;44.264;19.884;2022-07-29T10:26:58;871.20;1203.20
55329;DHT22;41205;44.264;19.884;2022-07-29T10:29:24;896.10;1177.60
55329;DHT22;41205;44.264;19.884;2022-07-29T10:34:22;870.90;1228.80
55329;DHT22;41205;44.264;19.884;2022-07-29T10:36:53;870.80;1203.20
55329;DHT22;41205;44.264;19.884;2022-07-29T10:44:35;845.70;1254.40
55329;DHT22;41205;44.264;19.884;2022-07-29T10:47:04;870.50;1254.40
55329;DHT22;41205;44.264;19.884;2022-07-29T10:49:30;870.50;1228.80
55329;DHT22;41205;44.264;19.884;2022-07-29T10:51:57;870.50;1254.40
55329;DHT22;41205;44.264;19.884;2022-07-29T11:05:05;870.90;1254.40
55329;DHT22;41205;44.264;19.884;2022-07-29T11:07:31;870.90;1228.80
55329;DHT22;41205;44.264;19.884;2022-07-29T11:15:03;871.10;1254.40
55329;DHT22;41205;44.264;19.884;2022-07-29T11:17:52;871.20;1228.80
55329;DHT22;41205;44.264;19.884;2022-07-29T11:23:00;871.30;1228.80
55329;DHT22;41205;44.264;19.884;2022-07-29T11:25:25;896.00;1228.80
55329;DHT22;41205;44.264;19.884;2022-07-29T11:27:52;896.00;1203.20
55329;DHT22;41205;44.264;19.884;2022-07-29T11:30:18;896.00;1203.20
55329;DHT22;41205;44.264;19.884;2022-07-29T11:32:44;871.30;1203.20
55329;DHT22;41205;44.264;19.884;2022-07-29T11:35:19;871.00;1228.80
55329;DHT22;41205;44.264;19.884;2022-07-29T11:37:47;870.60;1228.80
55329;DHT22;41205;44.264;19.884;2022-07-29T11:40:32;870.60;1254.40
55329;DHT22;41205;44.264;19.884;2022-07-29T11:42:58;870.70;1254.40
55329;DHT22;41205;44.264;19.884;2022-07-29T11:45:23;870.70;1254.40
55329;DHT22;41205;44.264;19.884;2022-07-29T11:47:54;870.70;1254.40
55329;DHT22;41205;44.264;19.884;2022-07-29T11:50:30;870.80;1280.00
55329;DHT22;41205;44.264;19.884;2022-07-29T11:52:56;871.10;1228.80
55329;DHT22;41205;44.264;19.884;2022-07-29T11:55:22;871.10;1228.80
55329;DHT22;41205;44.264;19.884;2022-07-29T11:57:55;870.90;1228.80
55329;DHT22;41205;44.264;19.884;2022-07-29T12:00:22;870.80;1228.80
55329;DHT22;41205;44.264;19.884;2022-07-29T12:02:48;870.60;1228.80
55329;DHT22;41205;44.264;19.884;2022-07-29T12:05:14;870.50;1254.40
55329;DHT22;41205;44.264;19.884;2022-07-29T12:07:40;870.50;1228.80
55329;DHT22;41205;44.264;19.884;2022-07-29T12:10:06;870.60;1228.80
55329;DHT22;41205;44.264;19.884;2022-07-29T12:12:32;870.90;1228.80
55329;DHT22;41205;44.264;19.884;2022-07-29T12:15:09;871.10;1254.40
55329;DHT22;41205;44.264;19.884;2022-07-29T12:17:35;871.20;1254.40
55329;DHT22;41205;44.264;19.884;2022-07-29T12:20:02;896.00;1228.80
55329;DHT22;41205;44.264;19.884;2022-07-29T12:22:29;896.00;1228.80
55329;DHT22;41205;44.264;19.884;2022-07-29T12:25:00;896.30;1228.80
55329;DHT22;41205;44.264;19.884;2022-07-29T12:27:26;896.40;1203.20
55329;DHT22;41205;44.264;19.884;2022-07-29T12:29:55;896.30;1177.60
55329;DHT22;41205;44.264;19.884;2022-07-29T12:32:21;896.40;1228.80
55329;DHT22;41205;44.264;19.884;2022-07-29T12:34:47;896.10;1203.20
55329;DHT22;41205;44.264;19.884;2022-07-29T12:37:13;871.30;1203.20
55329;DHT22;41205;44.264;19.884;2022-07-29T12:39:38;871.30;1228.80
55329;DHT22;41205;44.264;19.884;2022-07-29T12:42:13;896.00;1228.80
55329;DHT22;41205;44.264;19.884;2022-07-29T12:44:49;896.30;1203.20
55329;DHT22;41205;44.264;19.884;2022-07-29T12:47:15;871.30;1177.60
55329;DHT22;41205;44.264;19.884;2022-07-29T12:49:41;871.30;1203.20
55329;DHT22;41205;44.264;19.884;2022-07-29T12:54:51;871.10;1203.20
55329;DHT22;41205;44.264;19.884;2022-07-29T12:57:16;871.00;1203.20
55329;DHT22;41205;44.264;19.884;2022-07-29T12:59:42;871.10;1228.80
55329;DHT22;41205;44.264;19.884;2022-07-29T13:02:19;871.10;1203.20
55329;DHT22;41205;44.264;19.884;2022-07-29T13:04:54;871.20;1203.20
55329;DHT22;41205;44.264;19.884;2022-07-29T13:07:23;871.30;1203.20
55329;DHT22;41205;44.264;19.884;2022-07-29T13:09:49;896.00;1177.60
55329;DHT22;41205;44.264;19.884;2022-07-29T13:12:14;871.10;1203.20
55329;DHT22;41205;44.264;19.884;2022-07-29T13:14:41;871.30;1203.20
55329;DHT22;41205;44.264;19.884;2022-07-29T13:17:08;896.10;1203.20
55329;DHT22;41205;44.264;19.884;2022-07-29T13:21:59;896.10;1203.20
55329;DHT22;41205;44.264;19.884;2022-07-29T13:24:24;896.30;1203.20
55329;DHT22;41205;44.264;19.884;2022-07-29T13:26:50;896.30;1203.20
55329;DHT22;41205;44.264;19.884;2022-07-29T13:29:17;896.50;1203.20
55329;DHT22;41205;44.264;19.884;2022-07-29T13:31:42;896.50;1203.20
55329;DHT22;41205;44.264;19.884;2022-07-29T13:34:08;896.50;1203.20
55329;DHT22;41205;44.264;19.884;2022-07-29T13:36:34;896.50;1177.60
55329;DHT22;41205;44.264;19.884;2022-07-29T13:38:59;896.60;1203.20
55329;DHT22;41205;44.264;19.884;2022-07-29T13:41:27;896.50;1177.60
55329;DHT22;41205;44.264;19.884;2022-07-29T13:43:53;896.40;1177.60
55329;DHT22;41205;44.264;19.884;2022-07-29T13:46:18;896.30;1177.60
55329;DHT22;41205;44.264;19.884;2022-07-29T13:48:44;896.40;1177.60
55329;DHT22;41205;44.264;19.884;2022-07-29T13:51:09;896.30;1177.60
55329;DHT22;41205;44.264;19.884;2022-07-29T13:53:35;896.30;1177.60
55329;DHT22;41205;44.264;19.884;2022-07-29T13:56:01;896.10;1177.60
55329;DHT22;41205;44.264;19.884;2022-07-29T13:58:26;896.50;1203.20
55329;DHT22;41205;44.264;19.884;2022-07-29T14:00:52;896.40;1177.60
55329;DHT22;41205;44.264;19.884;2022-07-29T14:03:17;896.30;1177.60
55329;DHT22;41205;44.264;19.884;2022-07-29T14:05:43;896.40;1177.60
55329;DHT22;41205;44.264;19.884;2022-07-29T14:08:08;896.50;1177.60
55329;DHT22;41205;44.264;19.884;2022-07-29T14:10:34;896.60;1203.20
55329;DHT22;41205;44.264;19.884;2022-07-29T14:13:00;896.30;1177.60
55329;DHT22;41205;44.264;19.884;2022-07-29T14:15:25;896.40;1203.20
55329;DHT22;41205;44.264;19.884;2022-07-29T14:17:51;896.50;1177.60
55329;DHT22;41205;44.264;19.884;2022-07-29T14:20:17;896.40;1177.60
55329;DHT22;41205;44.264;19.884;2022-07-29T14:22:43;896.50;1177.60
55329;DHT22;41205;44.264;19.884;2022-07-29T14:25:08;896.30;1177.60
55329;DHT22;41205;44.264;19.884;2022-07-29T14:27:34;896.40;1203.20
55329;DHT22;41205;44.264;19.884;2022-07-29T14:29:59;896.10;1177.60
55329;DHT22;41205;44.264;19.884;2022-07-29T14:32:25;896.10;1203.20
55329;DHT22;41205;44.264;19.884;2022-07-29T14:34:51;896.00;1177.60
55329;DHT22;41205;44.264;19.884;2022-07-29T14:37:16;871.30;1203.20
55329;DHT22;41205;44.264;19.884;2022-07-29T14:39:42;870.80;1203.20
55329;DHT22;41205;44.264;19.884;2022-07-29T14:42:07;871.30;1203.20
55329;DHT22;41205;44.264;19.884;2022-07-29T14:44:33;896.00;1203.20
55329;DHT22;41205;44.264;19.884;2022-07-29T14:46:59;896.00;1203.20
55329;DHT22;41205;44.264;19.884;2022-07-29T14:49:25;896.00;1203.20
55329;DHT22;41205;44.264;19.884;2022-07-29T14:51:51;871.30;1203.20
55329;DHT22;41205;44.264;19.884;2022-07-29T14:54:17;871.10;1203.20
55329;DHT22;41205;44.264;19.884;2022-07-29T14:56:42;870.80;1203.20
55329;DHT22;41205;44.264;19.884;2022-07-29T14:59:08;870.90;1203.20
55329;DHT22;41205;44.264;19.884;2022-07-29T15:01:33;870.70;1203.20
55329;DHT22;41205;44.264;19.884;2022-07-29T15:03:59;870.50;1228.80
55329;DHT22;41205;44.264;19.884;2022-07-29T15:06:25;870.70;1228.80
55329;DHT22;41205;44.264;19.884;2022-07-29T15:08:50;870.70;1228.80
55329;DHT22;41205;44.264;19.884;2022-07-29T15:11:16;870.60;1228.80
55329;DHT22;41205;44.264;19.884;2022-07-29T15:13:41;870.50;1228.80
55329;DHT22;41205;44.264;19.884;2022-07-29T15:16:07;870.60;1228.80
55329;DHT22;41205;44.264;19.884;2022-07-29T15:18:33;870.60;1228.80
55329;DHT22;41205;44.264;19.884;2022-07-29T15:20:58;870.60;1228.80
55329;DHT22;41205;44.264;19.884;2022-07-29T15:23:25;870.70;1203.20
55329;DHT22;41205;44.264;19.884;2022-07-29T15:25:51;870.80;1228.80